WZZ235 EHEH-LIRQ
Flight info
| Callsign | WZZ235 |
|---|---|
| Flight time | N/A |
| Altitude | 39000 |
| Route | LNO N852 DIK M150 GEBDA/N0447F380 Y173 EDISA/N0445F390 Y852 NATOR N850 ODINA DCT ABSEM DCT PIKOT DCT PABRO DCT LUPOS DCT IPLUB DCT LOMED |
| Aircraft | A20N/M-SDE2E3FGHIRWXY/LB1 |
Departure
| Time | N/A |
|---|---|
| Airport | Eindhoven Airport (EHEH) |
Arrival
| Time | 2026-04-26 09:27 |
|---|---|
| Airport | Florence Airport, Peretola (LIRQ) |
| Time | Latitude | Longitude | Altitude | Speed | Heading |
|---|---|---|---|---|---|
| 2026-04-26 09:21 | 43.64536 | 10.95211 | 4835 ft | 150 kts | 46° |
| 2026-04-26 09:21 | 43.64770 | 10.95571 | 4762 ft | 150 kts | 46° |
| 2026-04-26 09:22 | 43.68169 | 11.00790 | 3785 ft | 149 kts | 45° |
| 2026-04-26 09:23 | 43.68864 | 11.01859 | 3576 ft | 148 kts | 45° |
| 2026-04-26 09:23 | 43.69551 | 11.02917 | 3375 ft | 147 kts | 45° |
| 2026-04-26 09:23 | 43.70228 | 11.03958 | 3182 ft | 144 kts | 46° |
| 2026-04-26 09:23 | 43.70898 | 11.04988 | 3102 ft | 143 kts | 46° |
| 2026-04-26 09:24 | 43.71577 | 11.06013 | 3000 ft | 144 kts | 46° |
| 2026-04-26 09:24 | 43.72243 | 11.07031 | 2970 ft | 145 kts | 46° |
| 2026-04-26 09:24 | 43.72920 | 11.08062 | 2991 ft | 146 kts | 45° |
| 2026-04-26 09:24 | 43.73596 | 11.09092 | 2985 ft | 144 kts | 47° |
| 2026-04-26 09:25 | 43.74272 | 11.10127 | 2989 ft | 145 kts | 45° |
| 2026-04-26 09:25 | 43.74944 | 11.11161 | 2998 ft | 145 kts | 46° |
| 2026-04-26 09:25 | 43.75618 | 11.12197 | 2967 ft | 144 kts | 46° |
| 2026-04-26 09:25 | 43.76288 | 11.13230 | 2989 ft | 144 kts | 46° |
| 2026-04-26 09:26 | 43.76976 | 11.14273 | 2674 ft | 148 kts | 45° |
| 2026-04-26 09:26 | 43.77668 | 11.15348 | 2253 ft | 149 kts | 48° |
| 2026-04-26 09:26 | 43.78353 | 11.16453 | 1744 ft | 152 kts | 48° |
| 2026-04-26 09:26 | 43.79038 | 11.17525 | 1256 ft | 151 kts | 47° |
| 2026-04-26 09:27 | 43.79797 | 11.18619 | 686 ft | 155 kts | 49° |
| 2026-04-26 09:27 | 43.80492 | 11.19721 | 227 ft | 149 kts | 46° |
| 2026-04-26 09:27 | 43.81115 | 11.20675 | 138 ft | 104 kts | 48° |
| 2026-04-26 09:27 | 43.81394 | 11.21112 | 147 ft | 17 kts | 48° |
| 2026-04-26 09:28 | 43.81469 | 11.21251 | 148 ft | 20 kts | 72° |
| 2026-04-26 09:28 | 43.81501 | 11.21296 | 147 ft | 3 kts | 293° |
| 2026-04-26 09:28 | 43.81436 | 11.21185 | 152 ft | 37 kts | 228° |